Terminal Aerodrome Forecast
Issued by NWS Shreveport, LA

Home | Current Version | Previous Version | Text Only | Print | Product List | Glossary On
Versions: 1 2 3 4 5 6 7 8 9 10 11 12 13 14 15
000
FTUS44 KSHV 201700 RRA
TAFMLU
TAF
KMLU 201744Z 2018/2118 08003KT P6SM FEW050
     FM210100 VRB03KT P6SM SCT060 BKN250
     FM210500 17003KT P6SM BKN080 BKN250
     FM211500 20005KT P6SM SCT060 BKN250=

USA.gov is the U.S. government's official web portal to all federal, state and local government web resources and services.